Taunsa Weather



Taunsa's Current Weather

Temprature 41.062o clear sky

clear sky

Rain: 0 %

Min Temprature41.062o
Max Temprature41.062o
Humidity22
Wind Speed2.91 m/h
Sun Rise05:16:12
Sun Set19:23:53
Current Time: 26-Jun-2019 15:13:29
Lat/Lon: 30.7, 70.65




Taunsa's Geo Location



Taunsa's Weather Forecast

Time Overall Temp Min Temp Max Temp Humidity Wind Speed Rain
26-Jun-2019 (Wed)
17:00:00 clear sky 42.250 42.250 42.250 18 3.2 m/h 0 %
20:00:00 clear sky 39.750 39.747 39.750 21 8.13 m/h 0 %
23:00:00 clear sky 38.340 38.340 38.340 23 1.33 m/h 0 %
27-Jun-2019 (Thu)
02:00:00 clear sky 35.780 35.779 35.780 27 2.2 m/h 0 %
05:00:00 clear sky 34.365 34.365 34.365 31 1.02 m/h 0 %
08:00:00 clear sky 38.150 38.150 38.150 22 1.73 m/h 0 %
11:00:00 clear sky 41.074 41.074 41.074 18 3.44 m/h 0 %
14:00:00 few clouds 43.350 43.350 43.350 14 0.86 m/h 0 %
17:00:00 clear sky 43.580 43.580 43.580 13 7.51 m/h 0 %
20:00:00 clear sky 40.694 40.694 40.694 16 5.11 m/h 0 %
23:00:00 few clouds 37.135 37.135 37.135 23 2.8 m/h 0 %
28-Jun-2019 (Fri)
02:00:00 clear sky 35.928 35.928 35.928 26 0.97 m/h 0 %
05:00:00 clear sky 34.228 34.228 34.228 27 1.01 m/h 0 %
08:00:00 clear sky 37.739 37.739 37.739 20 3.14 m/h 0 %
11:00:00 clear sky 41.025 41.025 41.025 16 2.37 m/h 0 %
14:00:00 clear sky 44.231 44.231 44.231 12 3.18 m/h 0 %
17:00:00 clear sky 45.250 45.250 45.250 10 3.5 m/h 0 %
20:00:00 few clouds 42.750 42.750 42.750 13 6.77 m/h 0 %
23:00:00 clear sky 40.272 40.272 40.272 19 8.52 m/h 0 %
29-Jun-2019 (Sat)
02:00:00 clear sky 37.772 37.772 37.772 23 3.69 m/h 0 %
05:00:00 clear sky 36.129 36.129 36.129 26 2.2 m/h 0 %
08:00:00 clear sky 39.617 39.617 39.617 20 0.66 m/h 0 %
11:00:00 clear sky 43.050 43.050 43.050 14 0.99 m/h 0 %
14:00:00 clear sky 46.250 46.250 46.250 8 3.29 m/h 0 %
17:00:00 clear sky 46.691 46.691 46.691 10 7.42 m/h 0 %
20:00:00 clear sky 43.250 43.250 43.250 12 8.33 m/h 0 %
23:00:00 clear sky 40.450 40.450 40.450 17 8.02 m/h 0 %
30-Jun-2019 (Sun)
02:00:00 clear sky 38.516 38.516 38.516 19 7.77 m/h 0 %
05:00:00 clear sky 36.042 36.042 36.042 23 3.56 m/h 0 %
08:00:00 clear sky 39.522 39.522 39.522 19 1.48 m/h 0 %
11:00:00 clear sky 42.818 42.818 42.818 14 2 m/h 0 %
14:00:00 clear sky 45.509 45.509 45.509 10 1.99 m/h 0 %
17:00:00 few clouds 45.850 45.850 45.850 13 7.37 m/h 0 %
20:00:00 clear sky 43.150 43.150 43.150 15 6.1 m/h 0 %
23:00:00 clear sky 41.150 41.150 41.150 18 5.95 m/h 0 %
01-Jul-2019 (Mon)
02:00:00 clear sky 38.750 38.750 38.750 22 5 m/h 0 %
05:00:00 clear sky 37.135 37.135 37.135 25 3.04 m/h 0 %
08:00:00 clear sky 39.850 39.850 39.850 24 3.55 m/h 0 %
11:00:00 clear sky 44.950 44.950 44.950 14 2.45 m/h 0 %
14:00:00 clear sky 47.950 47.950 47.950 10 4.73 m/h 0 %

Famous Cities (60)